Архив погоды в Балашове

Метеограмма Балашов
Вторник, 17 Июля
Время местн. Темп Ветер Видим Явления Облачность нижн/средн/верх Атм. давл. Влжн Точка росы ВНГО R Сост. почвы Tg s
Напр Скр Прв ур.ст ур.м изм
12:00 +18.9° С,С-В 2 - 10 км слабый ливневый дождь облачно 736 750 -0.4 95% +18° 200 м - - - -
09:00 +19.1° С-В 3 - 20 км ливневый дождь облачно 737 750 -0.8 91% +17.6° 600 м - - - -
06:00 +19.1° С-В 2 - 10 км слабый ливневый дождь облачно 737 751 -0.8 92% +17.7° 600 м - Влажная (без луж) - -
03:00 +19.2° В,Ю-В 2 - 10 км слабый непрерывный дождь облачно 738 752 -0.3 92% +17.9° 600 м - - - -
Понедельник, 16 Июля
Время местн. Темп Ветер Видим Явления Облачность нижн/средн/верх Атм. давл. Влжн Точка росы ВНГО R Сост. почвы Tg s
Напр Скр Прв ур.ст ур.м изм
21:00 +21.3° С 1 - 20 км - облачно 740 753 -0.2 87% +19° 600 м - - - -
18:00 +22.9° З 1 - 20 км - облачно 740 754 -0.2 78% +18.8° 1 км - - - -
15:00 +23.9° Ю,Ю-З 2 - 20 км слабый непрерывный дождь облачно 740 754 -0.1 79% +20° 600 м - - - -
12:00 +27° В,Ю-В 3 - 20 км - облачно 740 753 -0.1 54% +16.8° 600 м - - - -
09:00 +24.3° В,С-В 3 - 20 км - облачно 740 753 -0.5 68% +17.9° 1 км - - - -
06:00 +21.7° С,С-В 2 - 20 км - облачно 740 754 -0.4 76% +17.2° - - Влажная (без луж) - -
03:00 +20° С-В 3 - 20 км небо без изменений {гроза, ливневые осадки} облачно 741 754 -0.5 87% +17.7° 1.5 км - - - -
00:00 +20.2° В,С-В 3 - 10 км ливневый дождь {гроза} облачно 741 755 +0.2 91% +18.6° 600 м - - - -
Воскресенье, 15 Июля
Время местн. Темп Ветер Видим Явления Облачность нижн/средн/верх Атм. давл. Влжн Точка росы ВНГО R Сост. почвы Tg s
Напр Скр Прв ур.ст ур.м изм
21:00 +22.7° С,С-В 2 - 20 км небо без изменений {ливневые осадки} облачно 741 754 -0.1 80% +19.1° 1 км - - - -
18:00 +23.1° С,С-В 1 - 20 км ливневый дождь облачно 741 754 -0.1 77% +18.9° 1 км - - - -
15:00 +26.3° Ю,Ю-З 4 - 20 км - облачно 741 754 +0.2 56% +16.8° 1 км - - - -
12:00 +31.6° В 4 - 20 км - преимущественно облачно 741 754 -0.4 29% +11.5° 1.5 км - - - -
09:00 +29.1° В 3 - 20 км - переменная облачность 741 754 -0.3 37% +12.9° более 2.5 км - - - -
06:00 +22.6° В 3 - 20 км - незначительная облачность 741 755 +0.2 55% +13.2° более 2.5 км - Сухая (без трещин) - -
03:00 +20.8° В,С-В 3 - 20 км - переменная облачность 741 755 -0.4 60% +12.8° более 2.5 км - - - -
00:00 +22.2° В,С-В 2 - 20 км - переменная облачность 742 755 +0.4 54% +12.5° более 2.5 км - - - -
Суббота, 14 Июля
Время местн. Темп Ветер Видим Явления Облачность нижн/средн/верх Атм. давл. Влжн Точка росы ВНГО R Сост. почвы Tg s
Напр Скр Прв ур.ст ур.м изм
21:00 +24.9° С-В 2 - 20 км - незначительная облачность 741 755 +0.1 48% +13.2° более 2.5 км - - - -
18:00 +31.2° С 2 - 20 км - переменная облачность 741 754 -0.7 32% +12.5° 1.5 км - - - -
15:00 +31.8° С 2 - 20 км - облачно с прояснениями 742 755 -0.8 28% +10.8° 1.5 км - - - -
12:00 +30.3° С 2 - 20 км - облачно с прояснениями 743 756 -0.4 32% +11.7° 1.5 км - - - -
09:00 +28.6° С 2 - 20 км - незначительная облачность 743 756 -0.2 40% +13.7° 1.5 км - - - -
06:00 +18.6° штиль 0 - 20 км - ясно 743 757 -0.4 75% +14° более 2.5 км - Сухая (без трещин) - -